Time;durP1;ratioP1;P1;durP2;ratioP2;P2;SDS_P1;SDS_P2;PMS_P1;PMS_P2;Temp;Humidity;BMP_temperature;BMP_pressure;BME280_temperature;BME280_humidity;BME280_pressure;Samples;Min_cycle;Max_cycle;Signal;HPM_P1;HPM_P2
2023/12/14 00:00:42;;;;;;;2.20;2.00;;;;;;;-13.20;76.64;101107.91;4856127;29;20057;-61
2023/12/14 00:03:12;;;;;;;2.22;2.03;;;;;;;-13.02;76.23;101112.84;4865762;29;20766;-60
2023/12/14 00:05:44;;;;;;;3.22;2.10;;;;;;;-13.02;75.54;101122.91;4856871;29;20056;-60
2023/12/14 00:08:15;;;;;;;3.70;2.40;;;;;;;-12.95;75.23;101110.13;4866409;29;20745;-59
2023/12/14 00:10:45;;;;;;;3.65;2.28;;;;;;;-12.80;75.47;101111.53;4857084;29;20146;-60
2023/12/14 00:13:16;;;;;;;8.38;2.30;;;;;;;-12.81;74.79;101104.69;4866041;29;20091;-60
2023/12/14 00:15:48;;;;;;;2.13;1.92;;;;;;;-12.90;74.19;101108.91;4856390;29;20048;-60
2023/12/14 00:18:19;;;;;;;2.60;2.05;;;;;;;-12.91;74.28;101119.72;4862597;29;20060;-60
2023/12/14 00:20:51;;;;;;;2.22;2.00;;;;;;;-12.83;74.22;101106.19;4866058;29;20387;-60
2023/12/14 00:23:21;;;;;;;2.78;2.35;;;;;;;-12.89;74.33;101095.59;4856163;29;20056;-60
2023/12/14 00:25:52;;;;;;;2.25;2.05;;;;;;;-12.73;74.34;101103.75;4865957;29;20044;-60
2023/12/14 00:28:22;;;;;;;2.85;2.38;;;;;;;-12.73;73.80;101083.63;4856852;29;20053;-60
2023/12/14 00:30:58;;;;;;;3.40;2.10;;;;;;;-12.69;73.72;101100.75;4868850;29;20469;-58
2023/12/14 00:33:29;;;;;;;6.65;2.42;;;;;;;-12.29;74.63;101093.34;4861171;29;20048;-58
2023/12/14 00:36:01;;;;;;;5.25;2.35;;;;;;;-12.09;74.05;101090.03;4870442;29;20052;-59
2023/12/14 00:38:32;;;;;;;2.47;2.17;;;;;;;-11.98;73.06;101076.72;4855070;29;20048;-60
2023/12/14 00:41:02;;;;;;;4.30;2.30;;;;;;;-11.96;71.82;101080.25;4865430;29;20855;-60
2023/12/14 00:43:33;;;;;;;4.63;2.35;;;;;;;-11.82;71.16;101084.81;4856841;29;20052;-60
2023/12/14 00:46:04;;;;;;;5.05;2.58;;;;;;;-11.65;71.01;101077.81;4865685;29;20548;-60
2023/12/14 00:48:35;;;;;;;4.50;2.42;;;;;;;-11.56;69.37;101083.63;4855576;29;20075;-60
2023/12/14 00:51:07;;;;;;;2.80;1.95;;;;;;;-11.63;68.64;101082.22;4865176;29;20048;-60
2023/12/14 00:53:38;;;;;;;2.03;1.83;;;;;;;-11.60;67.18;101081.59;4855818;29;20622;-60
2023/12/14 00:56:10;;;;;;;2.00;1.80;;;;;;;-11.65;64.88;101076.16;4865627;29;20056;-60
2023/12/14 00:58:41;;;;;;;2.47;2.03;;;;;;;-11.59;66.02;101068.22;4857045;29;20153;-60
2023/12/14 01:01:11;;;;;;;4.00;2.40;;;;;;;-11.39;66.76;101053.13;4865871;29;20064;-59
2023/12/14 01:03:42;;;;;;;2.92;2.00;;;;;;;-11.31;64.20;101059.69;4855954;29;20124;-60
2023/12/14 01:06:14;;;;;;;2.95;2.05;;;;;;;-11.58;63.79;101054.84;4865737;29;20056;-61
2023/12/14 01:08:44;;;;;;;2.28;1.70;;;;;;;-11.48;64.93;101052.38;4855724;29;20147;-60
2023/12/14 01:11:15;;;;;;;3.25;1.90;;;;;;;-11.24;64.96;101050.13;4866076;29;20112;-61
2023/12/14 01:13:45;;;;;;;2.70;2.05;;;;;;;-11.26;62.57;101044.06;4856142;29;20262;-61
2023/12/14 01:16:16;;;;;;;2.95;1.90;;;;;;;-11.37;62.88;101041.53;4866249;29;20063;-60
2023/12/14 01:18:46;;;;;;;3.35;1.73;;;;;;;-11.36;63.36;101043.28;4855746;29;20495;-60
2023/12/14 01:21:22;;;;;;;2.72;1.90;;;;;;;-11.36;61.96;101038.25;4866727;29;20478;-60
2023/12/14 01:23:52;;;;;;;2.90;1.92;;;;;;;-11.43;62.16;101041.03;4855088;29;20079;-61
2023/12/14 01:26:23;;;;;;;2.83;1.90;;;;;;;-11.45;62.31;101032.47;4854060;29;20487;-60
2023/12/14 01:28:53;;;;;;;2.17;1.70;;;;;;;-11.35;62.98;101029.94;4865587;29;20191;-61
2023/12/14 01:31:24;;;;;;;3.08;1.80;;;;;;;-11.42;61.55;101035.22;4856879;29;20496;-61
2023/12/14 01:33:54;;;;;;;3.13;1.77;;;;;;;-11.38;61.68;101017.06;4865840;29;20075;-61
2023/12/14 01:36:27;;;;;;;2.40;1.90;;;;;;;-11.29;62.12;101020.34;4855480;29;20143;-60
2023/12/14 01:38:58;;;;;;;4.22;1.80;;;;;;;-11.44;61.37;101019.06;4865117;29;20064;-61
2023/12/14 01:41:28;;;;;;;3.45;1.70;;;;;;;-11.37;61.95;101011.25;4856199;29;20060;-60
2023/12/14 01:43:59;;;;;;;1.77;1.67;;;;;;;-11.33;61.53;100993.13;4864632;29;20111;-60
2023/12/14 01:46:29;;;;;;;3.33;1.98;;;;;;;-11.17;61.05;100999.41;4856936;29;20048;-61
2023/12/14 01:49:00;;;;;;;2.17;1.70;;;;;;;-11.33;59.86;101000.69;4865988;29;20061;-60
2023/12/14 01:51:33;;;;;;;2.65;2.00;;;;;;;-11.29;60.51;100992.59;4855499;29;20084;-59
2023/12/14 01:54:04;;;;;;;2.05;1.80;;;;;;;-11.28;59.90;100985.94;4864927;29;20151;-61
2023/12/14 01:56:34;;;;;;;3.72;1.98;;;;;;;-11.36;59.49;100927.25;4855272;29;20882;-60
2023/12/14 01:59:05;;;;;;;3.83;2.10;;;;;;;-10.81;59.85;100985.47;4865862;29;20088;-60
2023/12/14 02:01:41;;;;;;;7.05;1.80;;;;;;;-10.64;59.77;100995.28;4855935;29;20059;-61
2023/12/14 02:04:13;;;;;;;5.07;1.77;;;;;;;-10.58;59.21;100954.44;4868888;29;20060;-60
2023/12/14 02:06:45;;;;;;;5.18;1.75;;;;;;;-10.45;59.65;100972.34;4859236;29;20064;-61
2023/12/14 02:09:15;;;;;;;2.13;1.90;;;;;;;-10.32;57.55;100970.03;4867455;29;20242;-61
2023/12/14 02:11:46;;;;;;;5.55;1.80;;;;;;;-10.49;56.97;100961.13;4858427;29;20455;-61
2023/12/14 02:14:16;;;;;;;1.60;1.50;;;;;;;-10.57;56.50;100952.06;4868604;29;20048;-60
2023/12/14 02:16:47;;;;;;;3.97;1.65;;;;;;;-10.75;55.42;100946.44;4859119;29;20522;-60
2023/12/14 02:19:17;;;;;;;2.83;1.98;;;;;;;-10.49;57.10;100945.97;4868040;29;20102;-60
2023/12/14 02:21:49;;;;;;;2.50;1.83;;;;;;;-10.49;55.48;100935.84;4858729;29;20114;-61
2023/12/14 02:24:21;;;;;;;7.18;2.00;;;;;;;-10.72;56.64;100935.72;4861390;29;20072;-60
2023/12/14 02:26:52;;;;;;;3.33;1.70;;;;;;;-11.83;56.75;100803.28;4868183;29;20627;-60
2023/12/14 02:29:32;;;;;;;3.30;1.90;;;;;;;-10.95;58.00;100929.72;4858616;29;20055;-60
2023/12/14 02:32:02;;;;;;;2.25;1.70;;;;;;;-10.73;58.81;100903.63;4867714;29;20155;-61
2023/12/14 02:34:33;;;;;;;2.97;1.58;;;;;;;-10.51;57.70;100927.28;4859383;29;20108;-61
2023/12/14 02:37:03;;;;;;;1.92;1.55;;;;;;;-10.15;57.41;100923.28;4868126;29;20144;-60
2023/12/14 02:39:35;;;;;;;3.85;1.60;;;;;;;-10.28;55.37;100920.59;4857753;29;20143;-60
2023/12/14 02:42:06;;;;;;;1.95;1.60;;;;;;;-10.36;55.15;100901.44;4867382;29;20064;-60
2023/12/14 02:44:37;;;;;;;3.28;1.77;;;;;;;-10.48;55.75;100877.00;4857488;29;20059;-60
2023/12/14 02:47:07;;;;;;;2.17;1.55;;;;;;;-9.92;55.89;100906.44;4867800;29;20476;-61
2023/12/14 02:49:38;;;;;;;2.45;1.60;;;;;;;-9.84;54.16;100905.38;4857888;29;20084;-60
2023/12/14 02:52:08;;;;;;;7.28;1.58;;;;;;;-9.83;56.07;100902.97;4867797;29;20052;-60
2023/12/14 02:54:41;;;;;;;2.33;1.50;;;;;;;-9.90;54.88;100899.88;4857863;29;20125;-60
2023/12/14 02:57:11;;;;;;;2.42;1.63;;;;;;;-10.08;53.86;100905.28;4867311;29;20063;-59
2023/12/14 02:59:42;;;;;;;1.33;1.23;;;;;;;-10.22;54.25;100898.31;4857405;29;20060;-61
2023/12/14 03:02:13;;;;;;;4.05;1.60;;;;;;;-10.12;56.37;100898.22;4867555;29;20232;-60
2023/12/14 03:04:43;;;;;;;5.78;1.98;;;;;;;-9.93;54.60;100899.59;4858419;29;20056;-59
2023/12/14 03:07:14;;;;;;;2.88;1.38;;;;;;;-9.98;53.06;100887.53;4867116;29;20056;-61
2023/12/14 03:09:46;;;;;;;1.60;1.50;;;;;;;-10.23;54.88;100899.94;4857258;29;20055;-60
2023/12/14 03:12:16;;;;;;;2.50;1.45;;;;;;;-10.17;55.71;100894.47;4867885;29;20445;-59
2023/12/14 03:14:46;;;;;;;2.40;1.85;;;;;;;-10.16;54.61;100883.59;4856735;29;20082;-61
2023/12/14 03:17:17;;;;;;;3.33;1.58;;;;;;;-10.08;55.14;100900.25;4866842;29;20096;-61
2023/12/14 03:19:47;;;;;;;3.65;1.65;;;;;;;-9.96;55.95;100899.38;4857880;29;20060;-60
2023/12/14 03:22:18;;;;;;;2.38;1.65;;;;;;;-9.86;56.25;100896.78;4866754;29;20084;-59
2023/12/14 03:24:50;;;;;;;3.97;1.55;;;;;;;-9.99;55.81;100889.94;4856862;29;20067;-60
2023/12/14 03:27:19;;;;;;;1.58;1.48;;;;;;;-9.92;56.11;100882.03;4858556;29;20083;-60
2023/12/14 03:29:50;;;;;;;1.98;1.50;;;;;;;-9.77;56.08;100884.84;4865809;29;20183;-61
2023/12/14 03:32:21;;;;;;;1.60;1.45;;;;;;;-9.94;55.24;100882.69;4857654;29;20057;-60
2023/12/14 03:34:51;;;;;;;2.17;1.52;;;;;;;-10.16;55.09;100845.69;4867456;29;20109;-60
2023/12/14 03:37:22;;;;;;;2.42;1.85;;;;;;;-9.92;55.33;100874.47;4857126;29;20053;-60
2023/12/14 03:39:54;;;;;;;4.22;1.58;;;;;;;-9.91;55.13;100877.84;4866835;29;20160;-60
2023/12/14 03:42:25;;;;;;;2.45;1.50;;;;;;;-10.03;54.72;100868.59;4856449;29;20067;-61
2023/12/14 03:44:55;;;;;;;3.47;1.70;;;;;;;-9.90;55.74;100874.59;4866800;29;20060;-60
2023/12/14 03:47:26;;;;;;;3.40;1.60;;;;;;;-9.79;55.29;100869.53;4857026;29;20048;-60
2023/12/14 03:49:56;;;;;;;3.13;1.67;;;;;;;-9.67;55.65;100874.63;4866999;29;20104;-60
2023/12/14 03:52:28;;;;;;;3.08;1.73;;;;;;;-9.80;54.69;100877.91;4857780;29;20049;-61
2023/12/14 03:55:00;;;;;;;3.70;1.40;;;;;;;-9.87;55.59;100874.81;4866883;29;20646;-60
2023/12/14 03:57:30;;;;;;;1.63;1.40;;;;;;;-9.86;55.40;100876.56;4856922;29;20056;-60
2023/12/14 04:00:01;;;;;;;2.38;1.92;;;;;;;-9.90;55.30;100874.59;4866070;29;20056;-60
2023/12/14 04:02:31;;;;;;;1.70;1.40;;;;;;;-10.02;56.62;100877.94;4857350;29;20056;-60
2023/12/14 04:05:03;;;;;;;3.05;2.40;;;;;;;-10.16;57.79;100867.56;4866172;29;20053;-60
2023/12/14 04:07:34;;;;;;;5.78;1.90;;;;;;;-10.15;58.54;100882.84;4856488;29;20108;-59
2023/12/14 04:10:08;;;;;;;1.67;1.40;;;;;;;-10.33;58.80;100874.78;4866701;29;20055;-59
2023/12/14 04:12:39;;;;;;;1.67;1.50;;;;;;;-10.53;58.49;100873.25;4856211;29;20090;-60
2023/12/14 04:15:11;;;;;;;5.60;1.90;;;;;;;-10.72;59.48;100875.09;4865500;29;20112;-60
2023/12/14 04:17:41;;;;;;;1.90;1.58;;;;;;;-10.78;59.10;100874.63;4856272;29;20563;-59
2023/12/14 04:20:15;;;;;;;4.15;1.70;;;;;;;-10.86;60.66;100869.88;4866460;29;20056;-61
2023/12/14 04:22:46;;;;;;;3.40;1.73;;;;;;;-10.98;60.05;100861.34;4856332;29;20072;-60
2023/12/14 04:25:19;;;;;;;2.50;1.90;;;;;;;-11.14;61.57;100838.16;4866522;29;20064;-60
2023/12/14 04:27:49;;;;;;;4.00;1.75;;;;;;;-11.00;61.80;100862.84;4855388;29;20064;-61
2023/12/14 04:30:19;;;;;;;3.17;1.90;;;;;;;-11.03;61.98;100862.63;4861877;29;20064;-59
2023/12/14 04:32:50;;;;;;;6.57;1.90;;;;;;;-11.33;62.76;100816.53;4865283;29;20063;-59
2023/12/14 04:35:22;;;;;;;3.92;1.58;;;;;;;-10.98;64.11;100861.34;4857096;29;20199;-59
2023/12/14 04:37:52;;;;;;;3.22;1.70;;;;;;;-10.92;64.01;100861.81;4865738;29;20060;-59
2023/12/14 04:40:24;;;;;;;2.67;1.80;;;;;;;-10.95;64.27;100856.53;4857127;29;20061;-59
2023/12/14 04:42:55;;;;;;;3.35;1.70;;;;;;;-11.25;64.43;100813.75;4865382;29;20389;-59
2023/12/14 04:45:25;;;;;;;2.03;1.70;;;;;;;-11.00;65.10;100867.91;4857000;29;20150;-59
2023/12/14 04:47:56;;;;;;;3.50;1.75;;;;;;;-11.17;65.97;100865.69;4866137;29;20105;-59
2023/12/14 04:50:26;;;;;;;2.83;2.00;;;;;;;-11.21;66.20;100858.63;4856156;29;20064;-59
2023/12/14 04:52:56;;;;;;;3.08;1.92;;;;;;;-11.06;66.90;100864.88;4865668;29;20183;-60
2023/12/14 04:55:30;;;;;;;7.80;1.92;;;;;;;-11.04;66.48;100863.34;4856814;29;20080;-60
2023/12/14 04:58:01;;;;;;;4.10;1.70;;;;;;;-11.13;66.62;100855.06;4865931;29;20088;-59
2023/12/14 05:00:32;;;;;;;1.98;1.73;;;;;;;-11.15;67.10;100856.59;4856091;29;20060;-59
2023/12/14 05:03:02;;;;;;;1.80;1.70;;;;;;;-11.26;67.27;100844.75;4866339;29;20148;-58
2023/12/14 05:05:33;;;;;;;2.47;1.60;;;;;;;-11.10;67.67;100868.81;4855313;29;21249;-60
2023/12/14 05:08:03;;;;;;;1.83;1.63;;;;;;;-11.17;68.15;100868.22;4864460;29;20064;-59
2023/12/14 05:10:35;;;;;;;2.05;1.83;;;;;;;-11.17;68.50;100869.09;4856278;29;20065;-60
2023/12/14 05:13:06;;;;;;;2.80;2.47;;;;;;;-11.24;68.82;100878.56;4865852;29;20148;-59
2023/12/14 05:15:36;;;;;;;2.17;1.80;;;;;;;-11.35;70.13;100873.53;4856441;29;20104;-59
2023/12/14 05:18:05;;;;;;;4.95;2.33;;;;;;;-11.39;70.31;100871.53;4863375;29;20056;-59
2023/12/14 05:20:37;;;;;;;2.42;1.70;;;;;;;-11.49;70.33;100858.94;4855277;29;20132;-61
2023/12/14 05:23:07;;;;;;;3.03;2.25;;;;;;;-11.48;70.73;100870.81;4862154;29;20064;-61
2023/12/14 05:25:39;;;;;;;5.25;2.00;;;;;;;-11.44;71.48;100872.78;4855309;29;20536;-59
2023/12/14 05:28:10;;;;;;;5.38;2.10;;;;;;;-11.54;71.63;100880.38;4865290;29;20124;-61
2023/12/14 05:30:41;;;;;;;3.55;2.05;;;;;;;-11.73;72.08;100862.84;4855058;29;20193;-62
2023/12/14 05:33:11;;;;;;;2.67;1.95;;;;;;;-11.61;72.56;100889.06;4865551;29;20072;-60
2023/12/14 05:35:42;;;;;;;2.25;1.80;;;;;;;-11.67;71.76;100897.78;4854947;29;20056;-60
2023/12/14 05:38:13;;;;;;;5.45;2.10;;;;;;;-11.74;71.79;100897.28;4867412;29;20057;-60
2023/12/14 05:40:45;;;;;;;3.38;2.42;;;;;;;-11.73;72.08;100894.00;4859646;29;20064;-60
2023/12/14 05:43:16;;;;;;;3.63;2.08;;;;;;;-11.69;72.16;100894.25;4868922;29;20528;-61
2023/12/14 05:45:46;;;;;;;5.40;2.00;;;;;;;-11.64;72.42;100898.03;4859349;29;20063;-59
2023/12/14 05:48:33;;;;;;;4.40;2.25;;;;;;;-11.54;72.73;100895.50;4859228;29;20151;-60
2023/12/14 05:51:04;;;;;;;2.00;1.80;;;;;;;-11.37;72.74;100900.28;4869242;29;20151;-60
2023/12/14 05:53:39;;;;;;;4.35;1.95;;;;;;;-11.41;71.70;100898.25;4859348;29;20059;-59
2023/12/14 05:56:11;;;;;;;2.88;1.75;;;;;;;-11.54;71.73;100901.44;4868056;29;20143;-60
2023/12/14 05:58:42;;;;;;;3.15;2.03;;;;;;;-11.78;72.22;100885.19;4859084;29;20060;-61
2023/12/14 06:01:13;;;;;;;5.20;1.90;;;;;;;-11.67;73.00;100913.78;4868302;29;20732;-59
2023/12/14 06:03:43;;;;;;;2.63;2.10;;;;;;;-11.81;73.59;100904.22;4859446;29;20408;-60
2023/12/14 06:06:14;;;;;;;4.07;2.30;;;;;;;-11.88;75.18;100899.44;4868534;29;20063;-59
2023/12/14 06:08:45;;;;;;;2.80;1.95;;;;;;;-11.98;76.23;100890.25;4859239;29;20143;-60
2023/12/14 06:11:17;;;;;;;2.10;1.90;;;;;;;-11.94;77.02;100892.28;4867521;29;20059;-59
2023/12/14 06:13:48;;;;;;;2.65;2.00;;;;;;;-12.10;78.09;100879.13;4857351;29;20055;-60
2023/12/14 06:16:18;;;;;;;3.00;2.25;;;;;;;-12.28;79.19;100888.56;4868426;29;20155;-60
2023/12/14 06:18:49;;;;;;;4.25;2.45;;;;;;;-12.35;79.70;100882.16;4858186;29;20068;-60
2023/12/14 06:21:20;;;;;;;3.65;2.40;;;;;;;-12.39;80.27;100895.22;4864192;29;20389;-60
2023/12/14 06:23:50;;;;;;;2.72;1.88;;;;;;;-12.57;77.10;100883.59;4868236;29;20060;-59
2023/12/14 06:26:22;;;;;;;2.42;1.92;;;;;;;-12.62;73.72;100891.63;4859412;29;20048;-60
2023/12/14 06:28:53;;;;;;;3.72;2.28;;;;;;;-12.63;73.55;100889.88;4867946;29;20241;-60
2023/12/14 06:31:23;;;;;;;2.60;2.00;;;;;;;-12.66;72.68;100889.59;4858927;29;20056;-60
2023/12/14 06:33:54;;;;;;;4.38;2.35;;;;;;;-12.74;70.48;100890.59;4868210;29;20120;-61
2023/12/14 06:36:29;;;;;;;5.65;2.13;;;;;;;-12.77;70.57;100880.25;4858742;29;20057;-60
2023/12/14 06:39:00;;;;;;;2.35;2.15;;;;;;;-12.79;70.50;100886.78;4867922;29;20072;-61
2023/12/14 06:41:32;;;;;;;1.80;1.70;;;;;;;-12.94;70.10;100875.41;4858620;29;20105;-60
2023/12/14 06:44:03;;;;;;;3.55;2.20;;;;;;;-12.93;69.84;100879.69;4868014;29;20053;-60
2023/12/14 06:46:33;;;;;;;1.60;1.50;;;;;;;-12.98;69.84;100878.41;4858479;29;20111;-61
2023/12/14 06:49:04;;;;;;;1.90;1.80;;;;;;;-13.02;69.96;100871.34;4865905;29;20056;-60
2023/12/14 06:51:35;;;;;;;2.63;2.40;;;;;;;-13.06;69.62;100880.25;4857447;29;20056;-60
2023/12/14 06:54:05;;;;;;;3.63;1.80;;;;;;;-13.07;69.53;100879.38;4867901;29;20141;-61
2023/12/14 06:56:38;;;;;;;3.05;1.88;;;;;;;-13.12;69.12;100870.56;4857910;29;20056;-61
2023/12/14 06:59:08;;;;;;;1.73;1.63;;;;;;;-13.14;68.87;100877.06;4867498;29;20143;-60
2023/12/14 07:01:39;;;;;;;2.38;2.10;;;;;;;-13.21;68.83;100874.75;4858660;29;20050;-61
2023/12/14 07:04:10;;;;;;;3.78;3.00;;;;;;;-13.23;69.26;100871.22;4867320;29;20139;-63
2023/12/14 07:06:44;;;;;;;2.38;2.17;;;;;;;-13.16;69.20;100883.59;4857606;29;20057;-59
2023/12/14 07:09:14;;;;;;;3.25;1.80;;;;;;;-13.18;69.02;100875.03;4867317;29;20068;-61
2023/12/14 07:11:46;;;;;;;2.60;2.10;;;;;;;-13.23;69.02;100876.25;4856707;29;20151;-60
2023/12/14 07:14:17;;;;;;;3.38;2.20;;;;;;;-13.21;69.15;100873.88;4866900;29;20052;-59
2023/12/14 07:16:49;;;;;;;2.03;1.88;;;;;;;-13.16;68.95;100888.63;4857735;29;20217;-61
2023/12/14 07:19:20;;;;;;;3.58;2.10;;;;;;;-13.18;68.91;100885.09;4860531;29;20155;-61
2023/12/14 07:21:50;;;;;;;3.47;2.30;;;;;;;-13.25;69.02;100865.22;4866805;29;20159;-62
2023/12/14 07:24:21;;;;;;;4.93;2.10;;;;;;;-13.41;69.29;100829.44;4857374;29;20941;-60
2023/12/14 07:26:53;;;;;;;4.63;1.90;;;;;;;-13.10;69.06;100884.16;4867012;29;20823;-62
2023/12/14 07:29:23;;;;;;;2.40;2.03;;;;;;;-13.13;68.97;100881.34;4857714;29;20099;-60
2023/12/14 07:31:54;;;;;;;2.22;1.92;;;;;;;-13.13;68.87;100878.81;4866362;29;20139;-60
2023/12/14 07:34:24;;;;;;;4.47;2.22;;;;;;;-13.21;68.97;100874.75;4857404;29;20057;-62
2023/12/14 07:36:55;;;;;;;2.05;1.90;;;;;;;-13.29;69.18;100871.63;4866848;29;20112;-62
2023/12/14 07:39:26;;;;;;;10.20;2.47;;;;;;;-13.28;69.64;100872.50;4856482;29;20170;-62
2023/12/14 07:41:58;;;;;;;3.88;2.58;;;;;;;-13.23;69.69;100878.78;4867227;29;20140;-62
2023/12/14 07:44:29;;;;;;;4.25;2.45;;;;;;;-13.27;69.78;100885.22;4857830;29;20416;-62
2023/12/14 07:47:02;;;;;;;2.50;2.10;;;;;;;-13.31;69.16;100872.22;4867090;29;20048;-61
2023/12/14 07:49:32;;;;;;;5.95;2.25;;;;;;;-13.32;69.22;100875.50;4857894;29;20061;-62
2023/12/14 07:52:03;;;;;;;4.82;2.45;;;;;;;-13.41;69.21;100864.63;4865225;29;20067;-62
2023/12/14 07:54:33;;;;;;;8.57;5.28;;;;;;;-13.49;69.83;100887.47;4856842;29;20060;-62
2023/12/14 07:57:05;;;;;;;11.80;6.85;;;;;;;-13.58;70.78;100889.16;4866357;29;20148;-61
2023/12/14 07:59:36;;;;;;;18.15;10.02;;;;;;;-13.66;71.50;100897.63;4857248;29;20456;-61
2023/12/14 08:02:07;;;;;;;17.35;9.55;;;;;;;-13.98;71.98;100845.38;4866779;29;20057;-61
2023/12/14 08:04:38;;;;;;;10.70;7.60;;;;;;;-13.66;72.41;100900.16;4856934;29;20056;-62
2023/12/14 08:07:08;;;;;;;9.98;5.40;;;;;;;-13.70;72.88;100896.50;4865401;29;20067;-62
2023/12/14 08:09:39;;;;;;;27.50;11.60;;;;;;;-13.67;73.45;100898.41;4856617;29;20061;-62
2023/12/14 08:12:11;;;;;;;22.02;8.55;;;;;;;-13.64;73.79;100901.19;4866149;29;20676;-61
2023/12/14 08:14:43;;;;;;;11.63;5.30;;;;;;;-13.60;74.12;100898.22;4856889;29;20526;-60
2023/12/14 08:17:14;;;;;;;4.32;3.35;;;;;;;-13.61;74.42;100896.41;4866290;29;20056;-62
2023/12/14 08:19:45;;;;;;;6.80;4.65;;;;;;;-14.05;74.72;100845.59;4855781;29;20056;-62
2023/12/14 08:22:15;;;;;;;5.72;4.30;;;;;;;-13.75;74.85;100906.84;4866192;29;20057;-60
2023/12/14 08:24:46;;;;;;;5.25;3.30;;;;;;;-13.73;75.42;100915.41;4856308;29;20084;-61
2023/12/14 08:27:18;;;;;;;2.35;2.15;;;;;;;-13.66;75.76;100912.72;4865961;29;20124;-62
2023/12/14 08:29:48;;;;;;;4.63;2.53;;;;;;;-13.56;75.92;100910.28;4855463;29;20080;-62
2023/12/14 08:32:19;;;;;;;2.67;2.22;;;;;;;-13.51;76.25;100913.22;4864188;29;20057;-61
2023/12/14 08:34:49;;;;;;;4.53;2.30;;;;;;;-13.50;76.58;100920.91;4865795;29;21681;-62
2023/12/14 08:37:20;;;;;;;3.22;2.50;;;;;;;-13.49;76.98;100927.69;4859788;29;20056;-61
2023/12/14 08:39:54;;;;;;;3.45;2.30;;;;;;;-13.41;76.75;100914.91;4865678;29;20129;-61
2023/12/14 08:42:26;;;;;;;3.78;2.80;;;;;;;-13.40;77.01;100919.19;4856087;29;20052;-62
2023/12/14 08:44:56;;;;;;;5.70;2.25;;;;;;;-13.45;76.94;100917.88;4865918;29;20071;-61
2023/12/14 08:47:27;;;;;;;2.28;2.10;;;;;;;-13.48;77.42;100919.41;4855370;29;20053;-61
2023/12/14 08:49:57;;;;;;;2.60;1.98;;;;;;;-13.37;77.92;100917.84;4865950;29;20563;-61
2023/12/14 08:52:28;;;;;;;3.28;2.30;;;;;;;-13.33;77.76;100921.50;4856497;29;20060;-62
2023/12/14 08:54:58;;;;;;;5.90;2.10;;;;;;;-13.30;77.90;100920.16;4865717;29;20060;-61
2023/12/14 08:57:30;;;;;;;2.35;2.08;;;;;;;-13.31;77.42;100925.03;4856628;29;20210;-62
2023/12/14 09:00:01;;;;;;;3.35;2.35;;;;;;;-13.39;77.49;100920.97;4864595;29;20076;-60
2023/12/14 09:02:31;;;;;;;3.67;2.30;;;;;;;-13.32;77.58;100925.78;4855191;29;20063;-62
2023/12/14 09:05:02;;;;;;;5.53;2.20;;;;;;;-13.44;75.95;100924.69;4864192;29;20052;-61
2023/12/14 09:07:33;;;;;;;2.78;2.35;;;;;;;-13.51;75.35;100926.66;4855689;29;20152;-62
2023/12/14 09:10:04;;;;;;;1.88;1.77;;;;;;;-13.44;74.73;100929.72;4865142;29;20057;-61
2023/12/14 09:12:36;;;;;;;2.55;1.90;;;;;;;-13.52;73.96;100907.31;4854672;29;20088;-63
2023/12/14 09:15:08;;;;;;;3.13;2.08;;;;;;;-13.39;73.32;100933.53;4864971;29;20056;-62
2023/12/14 09:17:38;;;;;;;2.47;1.90;;;;;;;-13.47;73.37;100925.31;4855705;29;20068;-61
2023/12/14 09:20:11;;;;;;;2.75;2.15;;;;;;;-13.55;73.30;100927.16;4864994;29;20842;-59
2023/12/14 09:22:42;;;;;;;1.85;1.75;;;;;;;-13.53;73.42;100929.78;4855294;29;20053;-61
2023/12/14 09:25:12;;;;;;;4.43;2.10;;;;;;;-13.56;73.83;100919.47;4862822;29;20548;-61
2023/12/14 09:27:44;;;;;;;3.90;2.30;;;;;;;-13.52;73.83;100922.38;4855474;29;20064;-61
2023/12/14 09:30:17;;;;;;;2.55;1.95;;;;;;;-13.53;73.56;100925.63;4864903;29;20063;-61
2023/12/14 09:32:48;;;;;;;4.13;2.10;;;;;;;-13.86;73.73;100889.94;4855267;29;20453;-61
2023/12/14 09:35:19;;;;;;;5.38;1.90;;;;;;;-13.60;73.75;100920.81;4864691;29;20056;-61
2023/12/14 09:37:50;;;;;;;3.38;2.08;;;;;;;-13.59;73.88;100922.56;4864965;29;20451;-61
2023/12/14 09:40:22;;;;;;;2.72;2.13;;;;;;;-13.59;73.70;100917.56;4858470;29;20057;-61
2023/12/14 09:42:55;;;;;;;2.17;2.00;;;;;;;-13.69;73.44;100927.53;4864980;29;20361;-61
2023/12/14 09:45:30;;;;;;;14.80;8.00;;;;;;;-13.89;72.24;100922.34;4855108;29;20056;-61
2023/12/14 09:48:02;;;;;;;21.83;10.05;;;;;;;-14.20;72.46;100911.97;4864831;29;20087;-60
2023/12/14 09:50:33;;;;;;;8.63;5.40;;;;;;;-14.45;72.54;100922.28;4855224;29;20045;-61
2023/12/14 09:53:03;;;;;;;7.43;5.10;;;;;;;-14.58;73.27;100914.38;4865913;29;20143;-60
2023/12/14 09:55:34;;;;;;;9.25;5.88;;;;;;;-14.61;73.86;100929.16;4855182;29;20075;-61
2023/12/14 09:58:09;;;;;;;9.00;4.40;;;;;;;-14.60;74.19;100931.81;4862763;29;20928;-61
2023/12/14 10:00:40;;;;;;;10.38;3.70;;;;;;;-14.68;74.01;100927.69;4854219;29;20057;-61
2023/12/14 10:03:25;;;;;;;6.88;3.15;;;;;;;-14.88;73.74;100928.31;4864361;29;20064;-61
2023/12/14 10:05:57;;;;;;;9.88;3.35;;;;;;;-15.08;73.88;100928.94;4855613;29;20088;-61
2023/12/14 10:08:29;;;;;;;18.05;6.43;;;;;;;-15.35;74.20;100901.22;4855534;29;20746;-61
2023/12/14 10:11:00;;;;;;;24.77;5.47;;;;;;;-15.42;74.69;100929.84;4863951;29;20049;-60
2023/12/14 10:13:40;;;;;;;10.15;4.07;;;;;;;-15.52;75.15;100922.16;4855349;29;20080;-61
2023/12/14 10:16:11;;;;;;;8.60;3.88;;;;;;;-15.49;75.84;100922.47;4864854;29;20083;-61
2023/12/14 10:18:41;;;;;;;9.07;3.88;;;;;;;-15.48;76.21;100921.72;4854314;29;20056;-61
2023/12/14 10:21:12;;;;;;;7.47;3.95;;;;;;;-15.42;76.46;100924.84;4864189;29;20621;-61
2023/12/14 10:23:44;;;;;;;18.63;8.35;;;;;;;-15.45;76.76;100914.50;4854438;29;20060;-60
2023/12/14 10:26:29;;;;;;;17.33;8.75;;;;;;;-15.41;77.07;100921.59;4869500;29;20052;-60
2023/12/14 10:29:02;;;;;;;7.40;4.30;;;;;;;-15.43;77.36;100903.00;4871947;29;20436;-60
2023/12/14 10:31:37;;;;;;;7.88;4.50;;;;;;;-15.26;77.83;100914.66;4863967;29;20068;-59
2023/12/14 10:34:07;;;;;;;6.03;3.72;;;;;;;-15.37;77.62;100921.16;4872734;29;20062;-59
2023/12/14 10:36:38;;;;;;;9.20;5.85;;;;;;;-15.47;77.90;100926.00;4863368;29;20076;-60
2023/12/14 10:39:13;;;;;;;9.43;5.18;;;;;;;-15.56;77.87;100920.09;4872358;29;20507;-60
2023/12/14 10:41:44;;;;;;;11.30;5.18;;;;;;;-15.63;77.92;100912.72;4863083;29;20056;-59
2023/12/14 10:44:18;;;;;;;39.83;15.65;;;;;;;-15.83;77.91;100894.16;4873093;29;20131;-59
2023/12/14 10:47:09;;;;;;;48.08;17.90;;;;;;;-15.76;77.99;100905.69;4885493;29;20348;-59
2023/12/14 10:49:39;;;;;;;17.83;8.32;;;;;;;-15.85;77.89;100915.66;4871257;29;20592;-60
2023/12/14 10:52:11;;;;;;;22.63;10.68;;;;;;;-15.95;77.91;100918.00;4857262;29;20563;-59
2023/12/14 10:54:43;;;;;;;12.98;6.00;;;;;;;-16.01;78.29;100917.41;4866600;29;20136;-60
2023/12/14 10:57:14;;;;;;;6.28;4.25;;;;;;;-16.04;78.36;100905.47;4870601;29;20504;-59
2023/12/14 10:59:46;;;;;;;15.32;7.97;;;;;;;-16.08;78.82;100901.75;4868946;29;20391;-60
2023/12/14 11:02:16;;;;;;;8.15;4.78;;;;;;;-16.03;79.15;100898.84;4879762;29;20172;-59
2023/12/14 11:04:58;;;;;;;5.28;3.30;;;;;;;-15.93;79.62;100886.50;4871174;29;20078;-60
2023/12/14 11:07:54;;;;;;;22.83;5.57;;;;;;;-15.99;79.34;100880.91;4868857;29;20060;-60
2023/12/14 11:10:28;;;;;;;42.20;8.23;;;;;;;-16.15;79.42;100869.34;4852837;29;20063;-59
2023/12/14 11:13:02;;;;;;;44.92;13.55;;;;;;;-16.10;79.63;100885.75;4872395;29;20096;-59
2023/12/14 11:15:36;;;;;;;159.70;42.90;;;;;;;-16.19;79.56;100887.31;4863192;29;20072;-60
2023/12/14 11:18:32;;;;;;;121.75;33.33;;;;;;;-16.26;79.49;100884.06;4872059;29;20080;-59
2023/12/14 11:21:03;;;;;;;54.03;16.85;;;;;;;-16.77;79.84;100828.97;4828896;29;20563;-60
2023/12/14 11:23:36;;;;;;;53.47;15.60;;;;;;;-16.53;79.70;100896.47;4862373;29;20080;-59
2023/12/14 11:26:10;;;;;;;49.25;15.93;;;;;;;-16.54;80.07;100907.22;4871935;29;20052;-60
2023/12/14 11:28:43;;;;;;;49.17;17.83;;;;;;;-16.50;80.21;100895.00;4862775;29;20576;-59
2023/12/14 11:31:15;;;;;;;43.30;14.50;;;;;;;-16.52;80.23;100895.75;4872021;29;20132;-60
2023/12/14 11:33:47;;;;;;;17.55;7.63;;;;;;;-16.52;80.16;100899.88;4861956;29;20048;-60
2023/12/14 11:36:18;;;;;;;10.00;5.05;;;;;;;-16.63;80.03;100886.28;4870781;29;20555;-59